Renwick, Iowa
Current Conditions -  °F | °C
As of 9:15 AM on Thursday 18 Dec 2014 (Local Time) from KCAV Reporting Station
Overcast Overcast  
Wind Chill: 11°   Ceiling: 10000
Heat Index: 18°   Visibility: 9mi
Dew Point: 16°   Wind: 5mph
Humidity: 93%   Direction: 80°E
Pressure: 30.28"   Gusts: NA
Location:  42.83°N, 93.98°W
Report Text: KCAV 181515Z AUTO 08004KT 9SM OVC100 M08/M09 A3028 RMK AO2
Loading
Personal Weather Stations






























Interactive Weather Map New forecast layout! Learn more

10-Day Weather Forecast

Advertisements
Track Severe Weather on mobile